createdAt,value
2018-07-03T00:01:06.630Z,100175.64
2018-07-03T00:03:35.054Z,100184.98
2018-07-03T00:06:03.527Z,100183.19
2018-07-03T00:08:31.910Z,100184.09
2018-07-03T00:11:00.341Z,100179.56
2018-07-03T00:13:28.793Z,100175.25
2018-07-03T00:15:57.194Z,100173.32
2018-07-03T00:18:25.606Z,100173.07
2018-07-03T00:20:54.029Z,100178.88
2018-07-03T00:23:22.424Z,100176.39
2018-07-03T00:25:50.974Z,100178.66
2018-07-03T00:28:19.355Z,100172.96
2018-07-03T00:30:47.777Z,100160.98
2018-07-03T00:33:16.202Z,100160.41
2018-07-03T00:35:44.617Z,100160.09
2018-07-03T00:38:12.990Z,100163.06
2018-07-03T00:40:41.388Z,100161.98
2018-07-03T00:43:09.780Z,100167.45
2018-07-03T00:45:38.189Z,100165.02
2018-07-03T00:48:06.638Z,100159.28
2018-07-03T00:50:35.051Z,100153.86
2018-07-03T00:53:03.454Z,100158.48
2018-07-03T00:55:31.913Z,100152.53
2018-07-03T00:58:00.363Z,100162.09
2018-07-03T01:00:35.066Z,100163.77
2018-07-03T01:03:04.385Z,100152.06
2018-07-03T01:05:33.086Z,100155.33
2018-07-03T01:08:01.494Z,100154.50
2018-07-03T01:10:30.379Z,100147.98
2018-07-03T01:12:59.432Z,100149.06
2018-07-03T01:15:30.614Z,100137.33
2018-07-03T01:17:59.945Z,100143.88
2018-07-03T01:20:30.050Z,100145.52
2018-07-03T01:22:59.890Z,100144.14
2018-07-03T01:25:29.013Z,100147.43
2018-07-03T01:27:58.742Z,100144.16
2018-07-03T01:30:27.980Z,100143.61
2018-07-03T01:33:00.359Z,100147.70
2018-07-03T01:35:30.238Z,100143.87
2018-07-03T01:37:59.695Z,100142.52
2018-07-03T01:40:29.865Z,100142.25
2018-07-03T01:42:58.886Z,100145.50
2018-07-03T01:45:28.254Z,100146.05
2018-07-03T01:47:58.172Z,100148.24
2018-07-03T01:50:28.926Z,100145.77
2018-07-03T01:52:59.719Z,100141.95
2018-07-03T01:55:32.261Z,100143.33
2018-07-03T01:58:01.231Z,100148.25
2018-07-03T02:00:31.229Z,100144.40
2018-07-03T02:03:00.187Z,100144.66
2018-07-03T02:05:29.238Z,100143.59
2018-07-03T02:07:58.874Z,100143.87
2018-07-03T02:10:27.765Z,100143.89
2018-07-03T02:13:00.131Z,100142.78
2018-07-03T02:15:29.780Z,100143.59
2018-07-03T02:17:59.234Z,100134.34
2018-07-03T02:20:28.302Z,100131.85
2018-07-03T02:22:57.422Z,100133.22
2018-07-03T02:25:26.180Z,100141.67
2018-07-03T02:27:55.704Z,100146.01
2018-07-03T02:30:24.457Z,100144.77
2018-07-03T02:32:54.025Z,100139.55
2018-07-03T02:35:23.224Z,100139.63
2018-07-03T02:37:52.182Z,100133.09
2018-07-03T02:40:20.895Z,100127.40
2018-07-03T02:42:51.513Z,100126.31
2018-07-03T02:45:20.662Z,100124.42
2018-07-03T02:47:49.429Z,100126.86
2018-07-03T02:50:18.647Z,100122.28
2018-07-03T02:52:47.564Z,100123.62
2018-07-03T02:55:16.892Z,100127.42
2018-07-03T02:57:46.790Z,100130.38
2018-07-03T03:00:16.131Z,100134.38
2018-07-03T03:02:45.204Z,100134.80
2018-07-03T03:05:15.145Z,100133.73
2018-07-03T03:07:44.587Z,100134.36
2018-07-03T03:10:17.739Z,100124.07
2018-07-03T03:12:47.905Z,100141.51
2018-07-03T03:15:17.417Z,100134.03
2018-07-03T03:17:46.347Z,100129.17
2018-07-03T03:20:14.945Z,100130.33
2018-07-03T03:22:44.959Z,100126.81
2018-07-03T03:25:14.446Z,100126.83
2018-07-03T03:27:43.701Z,100122.16
2018-07-03T03:30:16.565Z,100124.59
2018-07-03T03:32:44.953Z,100136.35
2018-07-03T03:35:13.373Z,100130.64
2018-07-03T03:37:42.197Z,100142.59
2018-07-03T03:40:10.709Z,100153.46
2018-07-03T03:42:39.146Z,100147.62
2018-07-03T03:45:07.593Z,100144.84
2018-07-03T03:47:36.037Z,100146.48
2018-07-03T03:50:04.798Z,100154.09
2018-07-03T03:52:33.240Z,100154.92
2018-07-03T03:55:01.837Z,100153.03
2018-07-03T03:57:30.220Z,100157.16
2018-07-03T03:59:58.594Z,100154.98
2018-07-03T04:02:27.013Z,100154.45
2018-07-03T04:04:55.417Z,100152.80
2018-07-03T04:07:23.781Z,100160.13
2018-07-03T04:09:52.217Z,100166.37
2018-07-03T04:12:20.590Z,100166.39
2018-07-03T04:14:48.977Z,100162.91
2018-07-03T04:17:17.361Z,100171.89
2018-07-03T04:19:45.933Z,100171.09
2018-07-03T04:22:14.352Z,100176.30
2018-07-03T04:24:42.821Z,100180.48
2018-07-03T04:27:11.270Z,100168.85
2018-07-03T04:29:39.869Z,100171.93
2018-07-03T04:32:08.305Z,100177.94
2018-07-03T04:34:36.738Z,100173.28
2018-07-03T04:37:05.339Z,100179.79
2018-07-03T04:39:33.748Z,100175.87
2018-07-03T04:42:02.124Z,100182.81
2018-07-03T04:44:30.548Z,100190.55
2018-07-03T04:46:58.966Z,100186.09
2018-07-03T04:49:27.344Z,100177.98
2018-07-03T04:51:56.081Z,100183.33
2018-07-03T04:54:24.482Z,100185.84
2018-07-03T04:56:52.892Z,100184.61
2018-07-03T04:59:21.392Z,100187.22
2018-07-03T05:01:49.777Z,100191.30
2018-07-03T05:04:18.178Z,100194.37
2018-07-03T05:06:46.581Z,100198.56
2018-07-03T05:09:15.086Z,100193.54
2018-07-03T05:11:43.578Z,100189.23
2018-07-03T05:14:12.073Z,100203.90
2018-07-03T05:16:40.462Z,100204.73
2018-07-03T05:19:08.909Z,100213.94
2018-07-03T05:21:37.325Z,100208.80
2018-07-03T05:24:05.771Z,100212.56
2018-07-03T05:26:34.226Z,100223.91
2018-07-03T05:29:02.628Z,100220.77
2018-07-03T05:31:31.109Z,100216.41
2018-07-03T05:33:59.551Z,100218.06
2018-07-03T05:36:27.966Z,100209.95
2018-07-03T05:38:56.374Z,100217.43
2018-07-03T05:41:24.784Z,100221.79
2018-07-03T05:43:53.638Z,100227.20
2018-07-03T05:46:22.082Z,100228.70
2018-07-03T05:48:50.511Z,100230.29
2018-07-03T05:51:19.138Z,100225.08
2018-07-03T05:53:48.430Z,100241.94
2018-07-03T05:56:16.887Z,100246.03
2018-07-03T05:58:45.237Z,100239.28
2018-07-03T06:01:13.685Z,100234.55
2018-07-03T06:03:42.377Z,100239.81
2018-07-03T06:06:10.903Z,100241.92
2018-07-03T06:08:39.336Z,100252.50
2018-07-03T06:11:07.804Z,100253.94
2018-07-03T06:13:36.213Z,100253.83
2018-07-03T06:16:04.781Z,100244.25
2018-07-03T06:18:33.254Z,100247.06
2018-07-03T06:21:01.707Z,100259.06
2018-07-03T06:23:30.138Z,100245.63
2018-07-03T06:25:58.642Z,100250.80
2018-07-03T06:28:27.154Z,100246.00
2018-07-03T06:30:55.850Z,100238.86
2018-07-03T06:33:24.303Z,100235.61
2018-07-03T06:35:52.813Z,100246.42
2018-07-03T06:38:21.309Z,100242.78
2018-07-03T06:40:50.118Z,100237.75
2018-07-03T06:43:18.597Z,100240.30
2018-07-03T06:45:47.080Z,100238.15
2018-07-03T06:48:15.555Z,100236.05
2018-07-03T06:50:44.050Z,100236.36
2018-07-03T06:53:12.508Z,100230.21
2018-07-03T06:55:40.993Z,100230.19
2018-07-03T06:58:09.374Z,100217.45
2018-07-03T07:00:37.871Z,100226.52
2018-07-03T07:03:06.383Z,100234.41
2018-07-03T07:05:34.855Z,100229.76
2018-07-03T07:08:03.385Z,100229.61
2018-07-03T07:10:31.818Z,100235.80
2018-07-03T07:13:00.235Z,100236.06
2018-07-03T07:16:31.743Z,100232.68
2018-07-03T07:19:00.582Z,100223.97
2018-07-03T07:21:29.039Z,100227.36
2018-07-03T07:23:57.918Z,100235.45
2018-07-03T07:26:26.400Z,100231.81
2018-07-03T07:28:54.911Z,100223.09
2018-07-03T07:31:23.471Z,100225.47
2018-07-03T07:33:51.901Z,100229.64
2018-07-03T07:36:20.377Z,100225.33
2018-07-03T07:38:49.305Z,100222.56
2018-07-03T07:41:17.804Z,100221.85
2018-07-03T07:43:46.428Z,100224.52
2018-07-03T07:46:15.032Z,100217.83
2018-07-03T07:48:43.671Z,100213.11
2018-07-03T07:51:12.126Z,100209.73
2018-07-03T07:53:40.747Z,100212.43
2018-07-03T07:56:09.564Z,100214.22
2018-07-03T07:58:38.037Z,100212.94
2018-07-03T08:01:06.582Z,100207.85
2018-07-03T08:03:34.997Z,100212.00
2018-07-03T08:06:03.494Z,100207.95
2018-07-03T08:08:32.006Z,100209.57
2018-07-03T08:11:00.542Z,100215.69
2018-07-03T08:13:29.011Z,100216.41
2018-07-03T08:15:57.545Z,100215.00
2018-07-03T08:18:25.937Z,100210.13
2018-07-03T08:20:54.446Z,100211.92
2018-07-03T08:23:22.897Z,100216.08
2018-07-03T08:25:51.392Z,100215.27
2018-07-03T08:28:19.840Z,100219.25
2018-07-03T08:30:48.346Z,100217.81
2018-07-03T08:33:16.774Z,100217.12
2018-07-03T08:35:45.276Z,100212.83
2018-07-03T08:38:13.826Z,100215.02
2018-07-03T08:43:43.729Z,100218.52
2018-07-03T08:46:12.280Z,100214.14
2018-07-03T08:48:40.802Z,100216.81
2018-07-03T08:51:09.296Z,100219.78
2018-07-03T08:53:37.769Z,100219.72
2018-07-03T08:56:06.252Z,100213.15
2018-07-03T08:58:34.700Z,100213.02
2018-07-03T09:01:03.181Z,100209.00
2018-07-03T09:03:31.657Z,100210.19
2018-07-03T09:06:00.063Z,100208.80
2018-07-03T09:08:28.704Z,100204.75
2018-07-03T09:10:57.238Z,100210.81
2018-07-03T09:13:25.726Z,100209.19
2018-07-03T09:15:54.277Z,100208.91
2018-07-03T09:18:22.778Z,100210.11
2018-07-03T09:20:51.247Z,100208.47
2018-07-03T09:23:19.701Z,100210.80
2018-07-03T09:25:48.493Z,100210.69
2018-07-03T09:28:16.954Z,100205.59
2018-07-03T09:30:45.436Z,100203.39
2018-07-03T09:33:13.815Z,100210.90
2018-07-03T09:35:42.233Z,100205.56
2018-07-03T09:38:10.655Z,100203.55
2018-07-03T09:40:39.489Z,100201.16
2018-07-03T09:43:08.006Z,100201.89
2018-07-03T09:45:36.952Z,100206.91
2018-07-03T09:48:05.744Z,100209.14
2018-07-03T09:50:34.184Z,100204.30
2018-07-03T09:53:02.644Z,100200.57
2018-07-03T09:55:31.079Z,100196.94
2018-07-03T09:57:59.545Z,100202.91
2018-07-03T10:00:33.365Z,100197.55
2018-07-03T10:03:01.985Z,100198.94
2018-07-03T10:05:30.361Z,100206.94
2018-07-03T10:07:58.788Z,100196.24
2018-07-03T10:10:27.207Z,100197.45
2018-07-03T10:12:55.683Z,100193.48
2018-07-03T10:15:24.130Z,100198.44
2018-07-03T10:17:52.506Z,100198.41
2018-07-03T10:20:20.913Z,100199.05
2018-07-03T10:22:49.297Z,100197.78
2018-07-03T10:25:17.728Z,100200.09
2018-07-03T10:27:46.157Z,100191.05
2018-07-03T10:30:14.540Z,100196.53
2018-07-03T10:32:43.844Z,100197.78
2018-07-03T10:35:12.284Z,100201.22
2018-07-03T10:37:41.282Z,100194.84
2018-07-03T10:40:09.662Z,100194.13
2018-07-03T10:42:38.111Z,100187.09
2018-07-03T10:45:06.537Z,100182.14
2018-07-03T10:47:35.002Z,100190.03
2018-07-03T10:50:06.264Z,100185.90
2018-07-03T10:52:34.748Z,100187.79
2018-07-03T10:55:03.181Z,100184.65
2018-07-03T10:57:31.617Z,100188.11
2018-07-03T11:00:00.104Z,100188.06
2018-07-03T11:02:28.582Z,100189.80
2018-07-03T11:04:56.963Z,100184.06
2018-07-03T11:07:26.495Z,100173.16
2018-07-03T11:09:54.901Z,100178.50
2018-07-03T11:12:23.464Z,100179.95
2018-07-03T11:14:51.889Z,100179.02
2018-07-03T11:17:20.365Z,100176.00
2018-07-03T11:19:48.897Z,100169.25
2018-07-03T11:22:21.950Z,100164.33
2018-07-03T11:24:50.410Z,100162.89
2018-07-03T11:27:18.830Z,100165.47
2018-07-03T11:29:47.419Z,100168.09
2018-07-03T11:32:15.860Z,100164.17
2018-07-03T11:34:44.287Z,100160.50
2018-07-03T11:37:12.713Z,100159.88
2018-07-03T11:39:41.150Z,100161.93
2018-07-03T11:42:09.649Z,100154.14
2018-07-03T11:44:38.099Z,100153.62
2018-07-03T11:47:06.877Z,100151.65
2018-07-03T11:49:35.429Z,100149.23
2018-07-03T11:52:04.061Z,100149.67
2018-07-03T11:54:32.492Z,100150.05
2018-07-03T11:57:00.961Z,100156.92
2018-07-03T11:59:29.372Z,100156.52
2018-07-03T12:01:57.790Z,100148.81
2018-07-03T12:04:26.221Z,100140.67
2018-07-03T12:06:56.089Z,100142.62
2018-07-03T12:09:24.542Z,100145.05
2018-07-03T12:11:52.970Z,100146.26
2018-07-03T12:14:21.417Z,100137.66
2018-07-03T12:16:50.246Z,100135.41
2018-07-03T12:19:18.634Z,100141.87
2018-07-03T12:21:47.058Z,100137.77
2018-07-03T12:24:15.521Z,100140.02
2018-07-03T12:26:44.033Z,100137.72
2018-07-03T12:29:12.637Z,100130.00
2018-07-03T12:31:41.009Z,100131.25
2018-07-03T12:34:09.521Z,100134.20
2018-07-03T12:36:37.980Z,100128.02
2018-07-03T12:39:09.285Z,100124.91
2018-07-03T12:41:37.777Z,100128.86
2018-07-03T12:44:06.963Z,100124.63
2018-07-03T12:46:35.381Z,100125.84
2018-07-03T12:49:03.825Z,100126.64
2018-07-03T12:51:32.199Z,100121.10
2018-07-03T12:54:00.654Z,100119.07
2018-07-03T12:56:29.024Z,100112.90
2018-07-03T12:58:57.419Z,100115.25
2018-07-03T13:01:25.837Z,100108.58
2018-07-03T13:03:54.341Z,100108.64
2018-07-03T13:06:22.785Z,100113.11
2018-07-03T13:08:51.209Z,100114.47
2018-07-03T13:11:19.670Z,100115.63
2018-07-03T13:13:48.132Z,100113.66
2018-07-03T13:16:16.538Z,100109.63
2018-07-03T13:18:45.014Z,100110.75
2018-07-03T13:21:13.449Z,100107.43
2018-07-03T13:23:41.852Z,100108.25
2018-07-03T13:26:10.862Z,100098.97
2018-07-03T13:28:39.357Z,100097.41
2018-07-03T13:31:07.769Z,100105.64
2018-07-03T13:33:36.189Z,100106.35
2018-07-03T13:36:07.889Z,100095.52
2018-07-03T13:38:36.317Z,100098.47
2018-07-03T13:41:04.831Z,100093.19
2018-07-03T13:43:35.274Z,100090.41
2018-07-03T13:46:03.738Z,100092.83
2018-07-03T13:48:32.181Z,100087.39
2018-07-03T13:51:00.635Z,100085.51
2018-07-03T13:53:29.108Z,100085.19
2018-07-03T13:55:57.649Z,100085.40
2018-07-03T13:58:26.079Z,100072.20
2018-07-03T14:00:54.561Z,100078.53
2018-07-03T14:03:22.966Z,100077.13
2018-07-03T14:05:51.393Z,100080.39
2018-07-03T14:08:20.110Z,100061.95
2018-07-03T14:10:48.633Z,100061.13
2018-07-03T14:13:17.418Z,100072.14
2018-07-03T14:15:45.982Z,100061.28
2018-07-03T14:18:14.498Z,100066.19
2018-07-03T14:20:43.007Z,100067.83
2018-07-03T14:23:11.536Z,100070.05
2018-07-03T14:25:40.060Z,100069.48
2018-07-03T14:28:08.686Z,100058.80
2018-07-03T14:30:37.453Z,100061.81
2018-07-03T14:33:05.935Z,100061.54
2018-07-03T14:35:34.425Z,100067.36
2018-07-03T14:38:02.879Z,100054.12
2018-07-03T14:40:32.862Z,100062.09
2018-07-03T14:43:01.345Z,100059.55
2018-07-03T14:45:29.874Z,100054.81
2018-07-03T14:47:58.329Z,100055.91
2018-07-03T14:50:26.848Z,100053.52
2018-07-03T14:52:56.540Z,100053.84
2018-07-03T14:58:42.897Z,100051.72
2018-07-03T15:01:11.373Z,100052.96
2018-07-03T15:03:40.106Z,100044.69
2018-07-03T15:06:10.128Z,100040.42
2018-07-03T15:08:38.838Z,100036.69
2018-07-03T15:11:07.581Z,100035.34
2018-07-03T15:13:36.050Z,100040.52
2018-07-03T15:16:04.618Z,100039.09
2018-07-03T15:18:38.358Z,100036.85
2018-07-03T15:21:13.514Z,100033.29
2018-07-03T15:23:42.035Z,100037.15
2018-07-03T15:26:10.616Z,100036.74
2018-07-03T15:28:39.937Z,100026.87
2018-07-03T15:31:08.371Z,100017.72
2018-07-03T15:33:36.930Z,100024.17
2018-07-03T15:36:06.161Z,100023.06
2018-07-03T15:38:34.605Z,100022.52
2018-07-03T15:41:03.108Z,100017.32
2018-07-03T15:43:31.481Z,100016.48
2018-07-03T15:45:59.903Z,100012.27
2018-07-03T15:48:28.305Z,100017.09
2018-07-03T15:50:56.974Z,100018.04
2018-07-03T15:53:25.372Z,100009.49
2018-07-03T15:55:54.159Z,100006.06
2018-07-03T15:58:22.573Z,100006.48
2018-07-03T16:04:07.383Z,99999.20
2018-07-03T16:06:53.081Z,100004.22
2018-07-03T16:09:21.487Z,99997.86
2018-07-03T16:11:49.893Z,99995.52
2018-07-03T16:14:18.514Z,99996.28
2018-07-03T16:16:46.954Z,99991.41
2018-07-03T16:19:20.620Z,99991.22
2018-07-03T16:21:49.040Z,99994.59
2018-07-03T16:24:21.699Z,99985.92
2018-07-03T16:26:50.184Z,99985.98
2018-07-03T16:29:18.708Z,99984.33
2018-07-03T16:31:47.230Z,99977.46
2018-07-03T16:34:15.807Z,99976.48
2018-07-03T16:36:44.220Z,99979.83
2018-07-03T16:39:13.349Z,99975.22
2018-07-03T16:41:41.748Z,99969.84
2018-07-03T16:44:10.665Z,99974.64
2018-07-03T16:46:39.722Z,99970.64
2018-07-03T16:49:08.202Z,99969.34
2018-07-03T16:51:36.649Z,99974.15
2018-07-03T16:54:05.089Z,99970.01
2018-07-03T16:56:33.505Z,99968.05
2018-07-03T16:59:01.902Z,99968.08
2018-07-03T17:01:30.357Z,99965.48
2018-07-03T17:03:58.756Z,99971.28
2018-07-03T17:06:27.233Z,99970.09
2018-07-03T17:08:55.649Z,99977.95
2018-07-03T17:11:24.038Z,99966.55
2018-07-03T17:13:52.569Z,99969.63
2018-07-03T17:16:21.024Z,99968.49
2018-07-03T17:18:54.526Z,99961.44
2018-07-03T17:21:23.493Z,99961.67
2018-07-03T17:23:51.978Z,99970.04
2018-07-03T17:26:20.421Z,99968.22
2018-07-03T17:28:48.836Z,99967.81
2018-07-03T17:31:17.283Z,99957.27
2018-07-03T17:33:45.708Z,99955.14
2018-07-03T17:36:14.226Z,99958.91
2018-07-03T17:38:42.645Z,99943.78
2018-07-03T17:41:27.050Z,99951.22
2018-07-03T17:44:08.202Z,99951.22
2018-07-03T17:46:36.651Z,99947.47
2018-07-03T17:49:05.375Z,99948.20
2018-07-03T17:51:33.873Z,99941.97
2018-07-03T17:54:02.242Z,99951.89
2018-07-03T17:56:30.717Z,99956.61
2018-07-03T17:58:59.318Z,99952.74
2018-07-03T18:01:28.898Z,99954.56
2018-07-03T18:03:57.316Z,99955.10
2018-07-03T18:06:25.820Z,99955.83
2018-07-03T18:08:54.201Z,99957.41
2018-07-03T18:11:27.084Z,99948.95
2018-07-03T18:13:55.506Z,99945.73
2018-07-03T18:16:24.018Z,99949.45
2018-07-03T18:18:57.682Z,99951.25
2018-07-03T18:21:26.118Z,99946.39
2018-07-03T18:23:54.531Z,99951.98
2018-07-03T18:26:24.117Z,99947.41
2018-07-03T18:28:52.546Z,99954.48
2018-07-03T18:31:20.944Z,99961.59
2018-07-03T18:33:49.327Z,99962.85
2018-07-03T18:36:17.706Z,99966.75
2018-07-03T18:38:46.101Z,99968.15
2018-07-03T18:41:14.545Z,99970.81
2018-07-03T18:43:43.073Z,99970.06
2018-07-03T18:46:11.498Z,99974.19
2018-07-03T18:48:39.931Z,99975.59
2018-07-03T18:51:08.375Z,99979.77
2018-07-03T18:53:36.849Z,99975.36
2018-07-03T18:56:05.561Z,99972.14
2018-07-03T18:58:34.046Z,99968.34
2018-07-03T19:01:02.488Z,99969.54
2018-07-03T19:03:30.967Z,99972.25
2018-07-03T19:05:59.396Z,99968.22
2018-07-03T19:08:27.861Z,99973.62
2018-07-03T19:10:56.281Z,99978.04
2018-07-03T19:13:27.840Z,99974.66
2018-07-03T19:15:56.246Z,99971.92
2018-07-03T19:18:24.664Z,99974.81
2018-07-03T19:20:53.048Z,99970.77
2018-07-03T19:23:21.664Z,99970.52
2018-07-03T19:25:50.100Z,99976.47
2018-07-03T19:28:18.545Z,99974.64
2018-07-03T19:30:46.957Z,99980.53
2018-07-03T19:33:15.401Z,99979.14
2018-07-03T19:35:43.826Z,99979.91
2018-07-03T19:38:12.241Z,99977.98
2018-07-03T19:40:40.660Z,99980.17
2018-07-03T19:43:32.708Z,99982.91
2018-07-03T19:46:01.751Z,99981.38
2018-07-03T19:48:30.394Z,99979.00
2018-07-03T19:50:58.880Z,99978.52
2018-07-03T19:53:27.378Z,99973.34
2018-07-03T19:55:57.121Z,99981.38
2018-07-03T19:58:25.555Z,99983.71
2018-07-03T20:00:55.110Z,99976.12
2018-07-03T20:03:23.534Z,99986.12
2018-07-03T20:05:51.985Z,99987.88
2018-07-03T20:08:20.423Z,99992.98
2018-07-03T20:10:49.077Z,99997.54
2018-07-03T20:13:18.379Z,99999.47
2018-07-03T20:15:46.834Z,99999.34
2018-07-03T20:18:16.093Z,99993.59
2018-07-03T20:20:44.574Z,99995.51
2018-07-03T20:23:15.085Z,99998.05
2018-07-03T20:25:43.515Z,99998.16
2018-07-03T20:28:11.952Z,99998.01
2018-07-03T20:30:40.378Z,99994.25
2018-07-03T20:33:08.905Z,99992.66
2018-07-03T20:35:37.309Z,100002.63
2018-07-03T20:38:06.806Z,99998.45
2018-07-03T20:41:08.282Z,99996.78
2018-07-03T20:43:38.770Z,99991.92
2018-07-03T20:46:07.990Z,100000.13
2018-07-03T20:48:36.452Z,99993.80
2018-07-03T20:51:04.851Z,99997.28
2018-07-03T20:53:33.278Z,100002.11
2018-07-03T20:56:01.649Z,100003.88
2018-07-03T20:58:30.078Z,100007.45
2018-07-03T21:00:58.493Z,100007.47
2018-07-03T21:03:27.020Z,100006.09
2018-07-03T21:05:55.601Z,100006.43
2018-07-03T21:08:24.000Z,100010.71
2018-07-03T21:10:52.626Z,100009.44
2018-07-03T21:13:21.066Z,100013.93
2018-07-03T21:15:49.515Z,100014.81
2018-07-03T21:18:18.010Z,100010.64
2018-07-03T21:20:46.412Z,100010.04
2018-07-03T21:23:14.828Z,99999.69
2018-07-03T21:25:43.224Z,99997.12
2018-07-03T21:28:11.709Z,99996.40
2018-07-03T21:30:40.142Z,99995.58
2018-07-03T21:33:08.560Z,100003.03
2018-07-03T21:35:37.030Z,100005.39
2018-07-03T21:38:05.412Z,100004.38
2018-07-03T21:40:33.898Z,100002.28
2018-07-03T21:43:03.369Z,100005.91
2018-07-03T21:45:31.866Z,99998.19
2018-07-03T21:48:00.261Z,100005.46
2018-07-03T21:50:28.704Z,99997.45
2018-07-03T21:52:57.071Z,99997.12
2018-07-03T21:55:25.470Z,99992.36
2018-07-03T21:57:53.816Z,99994.34
2018-07-03T22:00:30.900Z,99992.31
2018-07-03T22:03:00.215Z,99991.22
2018-07-03T22:05:28.647Z,99990.60
2018-07-03T22:07:57.040Z,99990.45
2018-07-03T22:10:25.456Z,99989.16
2018-07-03T22:12:53.918Z,99986.59
2018-07-03T22:15:22.301Z,99986.83
2018-07-03T22:17:50.674Z,99985.11
2018-07-03T22:20:19.069Z,99992.97
2018-07-03T22:22:47.481Z,99995.73
2018-07-03T22:25:15.902Z,99992.09
2018-07-03T22:27:44.296Z,99993.56
2018-07-03T22:30:12.709Z,99992.89
2018-07-03T22:32:41.730Z,99991.03
2018-07-03T22:35:10.199Z,99989.02
2018-07-03T22:37:38.637Z,99992.98
2018-07-03T22:40:07.053Z,99993.39
2018-07-03T22:42:35.496Z,99998.75
2018-07-03T22:45:03.970Z,99991.69
2018-07-03T22:47:32.388Z,99998.98
2018-07-03T22:50:00.796Z,99999.54
2018-07-03T22:52:29.176Z,100002.06
2018-07-03T22:54:57.567Z,100000.94
2018-07-03T22:57:25.930Z,100004.41
2018-07-03T22:59:54.357Z,100004.18
2018-07-03T23:02:22.735Z,99993.97
2018-07-03T23:04:51.175Z,100000.48
2018-07-03T23:07:19.557Z,99997.47
2018-07-03T23:09:47.933Z,99999.23
2018-07-03T23:12:19.474Z,99996.33
2018-07-03T23:14:49.099Z,100000.45
2018-07-03T23:17:17.525Z,99999.56
2018-07-03T23:19:46.217Z,100004.91
2018-07-03T23:22:14.634Z,100001.08
2018-07-03T23:24:43.608Z,99993.55
2018-07-03T23:27:12.481Z,100002.30
2018-07-03T23:29:40.981Z,99998.85
2018-07-03T23:32:09.717Z,99998.52
2018-07-03T23:34:38.121Z,100004.59
2018-07-03T23:37:06.521Z,99996.02
2018-07-03T23:39:34.932Z,99997.45
2018-07-03T23:42:03.289Z,99999.52
2018-07-03T23:44:31.696Z,99994.64
2018-07-03T23:47:11.245Z,99998.19
2018-07-03T23:49:50.796Z,99998.91
2018-07-03T23:52:30.341Z,100002.25
2018-07-03T23:55:09.938Z,100000.94
2018-07-03T23:57:49.501Z,100007.03
